Time;durP1;ratioP1;P1;durP2;ratioP2;P2;SDS_P1;SDS_P2;PMS_P1;PMS_P2;Temp;Humidity;BMP_temperature;BMP_pressure;BME280_temperature;BME280_humidity;BME280_pressure;Samples;Min_cycle;Max_cycle;Signal;HPM_P1;HPM_P2
2021/03/11 00:01:47;;;;;;;0.55;0.55;;;9.30;99.90;;;;;;4984899;28;20052;-88
2021/03/11 00:04:12;;;;;;;0.73;0.73;;;9.30;99.90;;;;;;4987255;28;20061;-88
2021/03/11 00:06:38;;;;;;;0.47;0.47;;;9.10;99.90;;;;;;4984248;28;20043;-88
2021/03/11 00:09:04;;;;;;;0.75;0.75;;;9.10;99.90;;;;;;4978085;28;20022;-86
2021/03/11 00:11:30;;;;;;;0.50;0.50;;;9.00;99.90;;;;;;4989101;28;20451;-85
2021/03/11 00:13:56;;;;;;;3.92;1.65;;;9.00;99.90;;;;;;4980766;28;20121;-86
2021/03/11 00:16:21;;;;;;;1.02;0.65;;;9.00;99.90;;;;;;4991991;28;20441;-86
2021/03/11 00:18:47;;;;;;;0.65;0.65;;;8.90;99.90;;;;;;4989524;28;20038;-85
2021/03/11 00:21:13;;;;;;;0.88;0.88;;;9.00;99.90;;;;;;4988807;28;20049;-85
2021/03/11 00:23:39;;;;;;;1.45;0.80;;;9.00;99.90;;;;;;4992157;28;20084;-86
2021/03/11 00:26:05;;;;;;;0.45;0.45;;;9.00;99.90;;;;;;4991374;28;20026;-86
2021/03/11 00:28:31;;;;;;;0.45;0.45;;;9.00;99.90;;;;;;4981399;28;20069;-86
2021/03/11 00:30:57;;;;;;;0.55;0.52;;;9.00;99.90;;;;;;4988498;28;20038;-85
2021/03/11 00:33:22;;;;;;;0.30;0.30;;;9.10;99.90;;;;;;4990580;28;20084;-85
2021/03/11 00:35:48;;;;;;;0.68;0.65;;;9.10;99.90;;;;;;4992243;28;20037;-87
2021/03/11 00:38:15;;;;;;;0.45;0.45;;;9.10;99.90;;;;;;4991420;28;20042;-86
2021/03/11 00:40:41;;;;;;;4.05;0.52;;;9.10;99.90;;;;;;4991843;28;20029;-86
2021/03/11 00:43:07;;;;;;;0.82;0.82;;;9.10;99.90;;;;;;4990662;28;20038;-84
2021/03/11 00:45:33;;;;;;;1.90;0.55;;;8.90;99.90;;;;;;4990979;28;20030;-85
2021/03/11 00:47:58;;;;;;;0.30;0.30;;;9.00;99.90;;;;;;4992056;28;20830;-85
2021/03/11 00:50:24;;;;;;;1.65;0.43;;;9.00;99.90;;;;;;4991734;28;20025;-84
2021/03/11 00:52:50;;;;;;;0.85;0.73;;;9.00;99.90;;;;;;4991882;28;20042;-84
2021/03/11 00:55:19;;;;;;;1.65;1.05;;;8.90;99.90;;;;;;4991661;28;20023;-84
2021/03/11 00:57:44;;;;;;;0.60;0.60;;;8.80;99.90;;;;;;4991196;28;20034;-84
2021/03/11 01:00:12;;;;;;;2.28;1.45;;;8.80;99.90;;;;;;4989975;28;20030;-84
2021/03/11 01:02:38;;;;;;;3.90;1.95;;;8.70;99.90;;;;;;4991193;28;20117;-84
2021/03/11 01:05:05;;;;;;;1.00;1.00;;;8.60;99.90;;;;;;4991344;28;20101;-85
2021/03/11 01:07:31;;;;;;;;;;;8.70;99.90;;;;;;4991954;28;20037;-85
2021/03/11 01:09:57;;;;;;;0.53;0.53;;;8.70;99.90;;;;;;4990064;28;19988;-84
2021/03/11 01:12:23;;;;;;;1.25;1.20;;;8.70;99.90;;;;;;4986765;28;20045;-86
2021/03/11 01:14:48;;;;;;;1.00;0.60;;;8.80;99.90;;;;;;4991229;28;20097;-85
2021/03/11 01:17:14;;;;;;;1.13;1.13;;;8.70;99.90;;;;;;4990121;28;20050;-85
2021/03/11 01:19:40;;;;;;;0.20;0.20;;;8.50;99.90;;;;;;4989982;28;20031;-85
2021/03/11 01:22:06;;;;;;;0.43;0.43;;;8.40;99.90;;;;;;4989395;28;20510;-85
2021/03/11 01:24:32;;;;;;;0.55;0.55;;;8.30;99.90;;;;;;4990499;28;20080;-85
2021/03/11 01:26:58;;;;;;;0.15;0.15;;;8.30;99.90;;;;;;4990442;28;20038;-85
2021/03/11 01:29:24;;;;;;;0.43;0.32;;;8.10;99.90;;;;;;4990674;28;20015;-85
2021/03/11 01:31:49;;;;;;;1.40;1.30;;;8.00;99.90;;;;;;4988466;28;20173;-85
2021/03/11 01:34:15;;;;;;;0.80;0.80;;;8.00;99.90;;;;;;4990551;28;20018;-85
2021/03/11 01:36:41;;;;;;;0.55;0.55;;;8.00;99.90;;;;;;4990968;28;20034;-85
2021/03/11 01:39:07;;;;;;;0.30;0.30;;;8.00;99.90;;;;;;4991025;28;20029;-84
2021/03/11 01:41:33;;;;;;;0.30;0.30;;;7.90;99.90;;;;;;4986233;28;20019;-84
2021/03/11 01:43:59;;;;;;;0.73;0.67;;;7.80;99.90;;;;;;4982707;28;20031;-84
2021/03/11 01:46:26;;;;;;;0.10;0.10;;;7.80;99.90;;;;;;4990325;28;20399;-84
2021/03/11 01:48:52;;;;;;;0.60;0.57;;;7.70;99.90;;;;;;4978875;28;20054;-84
2021/03/11 01:51:19;;;;;;;1.13;0.47;;;7.70;99.90;;;;;;4991860;28;20030;-84
2021/03/11 01:53:48;;;;;;;1.08;1.00;;;7.80;99.90;;;;;;4994858;28;20136;-84
2021/03/11 01:56:14;;;;;;;1.08;1.08;;;7.70;99.90;;;;;;5001336;28;20035;-83
2021/03/11 01:58:41;;;;;;;0.67;0.67;;;7.80;99.90;;;;;;4991296;28;20154;-83
2021/03/11 02:01:07;;;;;;;0.20;0.20;;;7.80;99.90;;;;;;4989506;28;20109;-82
2021/03/11 02:03:33;;;;;;;1.25;0.82;;;7.70;99.90;;;;;;4990916;28;20109;-82
2021/03/11 02:05:59;;;;;;;0.10;0.10;;;7.70;99.90;;;;;;4989945;28;20498;-82
2021/03/11 02:08:25;;;;;;;1.05;1.05;;;7.70;99.90;;;;;;4992830;28;20038;-82
2021/03/11 02:10:51;;;;;;;4.65;1.05;;;7.60;99.90;;;;;;4990391;28;20026;-82
2021/03/11 02:13:41;;;;;;;0.97;0.97;;;7.60;99.90;;;;;;4987149;28;20037;-82
2021/03/11 02:16:20;;;;;;;0.20;0.20;;;7.60;99.90;;;;;;5002299;28;20030;-82
2021/03/11 02:19:16;;;;;;;0.77;0.77;;;7.60;99.90;;;;;;4978139;28;20498;-82
2021/03/11 02:21:50;;;;;;;0.82;0.82;;;7.60;99.90;;;;;;4987608;28;20467;-82
2021/03/11 02:24:44;;;;;;;0.32;0.32;;;7.40;99.90;;;;;;4984493;28;20040;-82
2021/03/11 02:27:32;;;;;;;0.55;0.55;;;7.40;1.00;;;;;;4989676;28;20038;-82
2021/03/11 02:29:59;;;;;;;0.55;0.55;;;7.40;1.00;;;;;;4980946;28;20022;-82
2021/03/11 02:32:26;;;;;;;2.15;1.20;;;7.40;1.00;;;;;;4989375;28;20029;-82
2021/03/11 02:34:59;;;;;;;0.95;0.95;;;7.40;99.90;;;;;;4996918;28;20058;-82
2021/03/11 02:37:31;;;;;;;0.63;0.63;;;7.30;1.00;;;;;;4990023;28;20019;-82
2021/03/11 02:40:07;;;;;;;0.30;0.30;;;7.30;1.00;;;;;;4977268;28;20026;-82
2021/03/11 02:42:34;;;;;;;0.65;0.65;;;7.30;99.90;;;;;;4989709;28;20085;-82
2021/03/11 02:45:00;;;;;;;;;;;7.30;82.70;;;;;;4990327;28;20042;-82
2021/03/11 02:47:26;;;;;;;0.47;0.47;;;7.20;14.60;;;;;;4999301;28;19918;-82
2021/03/11 02:49:54;;;;;;;0.88;0.88;;;7.20;99.90;;;;;;4989538;28;20027;-82
2021/03/11 02:52:21;;;;;;;0.17;0.17;;;7.30;99.90;;;;;;4978994;28;20586;-82
2021/03/11 02:54:48;;;;;;;0.40;0.40;;;7.30;78.60;;;;;;4988354;28;20494;-82
2021/03/11 02:57:16;;;;;;;0.40;0.40;;;7.40;1.00;;;;;;4991137;28;20516;-82
2021/03/11 02:59:44;;;;;;;0.10;0.10;;;7.20;1.00;;;;;;4988386;28;20034;-82
2021/03/11 03:02:10;;;;;;;0.98;0.35;;;7.20;1.00;;;;;;4992871;28;20038;-82
2021/03/11 03:04:39;;;;;;;0.17;0.17;;;7.20;1.00;;;;;;4989107;28;20027;-82
2021/03/11 03:07:07;;;;;;;0.85;0.32;;;7.30;1.00;;;;;;4989204;28;20037;-82
2021/03/11 03:09:34;;;;;;;0.47;0.47;;;7.30;99.90;;;;;;4989609;28;20034;-82
2021/03/11 03:12:00;;;;;;;0.43;0.43;;;7.40;99.90;;;;;;4975499;28;20036;-83
2021/03/11 03:14:26;;;;;;;1.50;1.40;;;7.20;99.90;;;;;;4988738;28;20735;-82
2021/03/11 03:16:53;;;;;;;0.20;0.20;;;7.10;99.90;;;;;;5003008;28;20533;-82
2021/03/11 03:19:19;;;;;;;0.32;0.32;;;7.10;99.90;;;;;;4987396;28;20026;-82
2021/03/11 03:21:47;;;;;;;0.43;0.43;;;7.10;99.90;;;;;;4988083;28;20410;-82
2021/03/11 03:24:16;;;;;;;0.40;0.40;;;7.10;99.90;;;;;;4980455;28;20397;-82
2021/03/11 03:26:42;;;;;;;0.35;0.35;;;7.00;99.90;;;;;;4988565;28;20862;-83
2021/03/11 03:29:08;;;;;;;0.10;0.10;;;7.00;99.90;;;;;;4988925;28;20104;-82
2021/03/11 03:31:34;;;;;;;1.48;1.38;;;7.00;99.90;;;;;;4999844;28;20029;-83
2021/03/11 03:34:00;;;;;;;0.52;0.52;;;7.00;1.00;;;;;;4992558;28;20685;-83
2021/03/11 03:36:26;;;;;;;0.85;0.85;;;7.10;99.90;;;;;;4989093;28;20029;-83
2021/03/11 03:38:54;;;;;;;1.23;1.20;;;7.20;1.00;;;;;;4983518;28;20038;-82
2021/03/11 03:41:22;;;;;;;2.00;1.17;;;7.20;99.90;;;;;;4988744;28;20433;-82
2021/03/11 03:43:50;;;;;;;2.05;1.40;;;7.30;99.90;;;;;;5002028;28;20026;-82
2021/03/11 03:46:22;;;;;;;0.13;0.13;;;7.30;99.90;;;;;;5003051;28;20018;-82
2021/03/11 03:48:57;;;;;;;3.83;1.38;;;7.20;7.10;;;;;;4995782;28;20054;-82
2021/03/11 03:51:35;;;;;;;0.43;0.43;;;7.40;99.90;;;;;;4992579;28;20035;-82
2021/03/11 03:54:09;;;;;;;0.00;0.00;;;7.30;99.90;;;;;;4988357;28;20027;-82
2021/03/11 03:56:49;;;;;;;0.20;0.20;;;7.30;99.90;;;;;;4987690;28;20031;-82
2021/03/11 03:59:22;;;;;;;3.45;0.80;;;7.20;3.80;;;;;;4992912;28;20052;-82
2021/03/11 04:01:54;;;;;;;1.65;0.85;;;7.30;99.90;;;;;;4997818;28;20018;-82
2021/03/11 04:04:20;;;;;;;0.10;0.10;;;7.30;1.00;;;;;;5003173;28;20030;-82
2021/03/11 04:06:47;;;;;;;3.80;1.27;;;7.30;1.00;;;;;;4991205;28;20037;-82
2021/03/11 04:09:14;;;;;;;0.65;0.65;;;7.40;99.90;;;;;;5002725;28;20030;-81
2021/03/11 04:11:45;;;;;;;0.60;0.60;;;7.40;1.00;;;;;;4991023;28;20494;-82
2021/03/11 04:14:11;;;;;;;0.40;0.40;;;7.40;1.00;;;;;;4991715;28;20027;-82
2021/03/11 04:16:40;;;;;;;0.10;0.10;;;7.20;15.00;;;;;;4992341;28;20467;-82
2021/03/11 04:19:06;;;;;;;0.70;0.70;;;7.30;99.90;;;;;;4979789;28;20092;-82
2021/03/11 04:21:33;;;;;;;0.20;0.20;;;7.40;1.00;;;;;;4993007;28;20692;-82
2021/03/11 04:24:00;;;;;;;0.80;0.80;;;7.50;99.90;;;;;;4999775;28;20273;-82
2021/03/11 04:26:26;;;;;;;2.47;0.93;;;7.50;99.90;;;;;;5001565;28;20048;-82
2021/03/11 04:28:52;;;;;;;0.38;0.30;;;7.40;99.90;;;;;;4992381;28;20042;-82
2021/03/11 04:31:19;;;;;;;0.52;0.52;;;7.50;59.90;;;;;;4992432;28;20046;-82
2021/03/11 04:33:45;;;;;;;3.80;1.15;;;7.50;99.90;;;;;;4987442;28;20041;-82
2021/03/11 04:36:11;;;;;;;0.35;0.35;;;7.50;99.90;;;;;;4997934;28;20201;-82
2021/03/11 04:38:38;;;;;;;2.08;1.27;;;7.50;1.00;;;;;;4990055;28;20046;-82
2021/03/11 04:41:05;;;;;;;0.43;0.43;;;7.50;99.90;;;;;;4991286;28;20018;-82
2021/03/11 04:43:32;;;;;;;;;;;7.40;1.00;;;;;;4992292;28;20023;-82
2021/03/11 04:45:58;;;;;;;;;;;7.40;99.90;;;;;;4995471;28;19920;-82
2021/03/11 04:48:25;;;;;;;1.07;0.73;;;7.50;63.20;;;;;;5007484;28;19913;-83
2021/03/11 04:50:52;;;;;;;0.88;0.73;;;7.60;99.90;;;;;;4992409;28;20019;-83
2021/03/11 04:53:21;;;;;;;0.55;0.55;;;7.70;99.90;;;;;;4998514;28;20033;-83
2021/03/11 04:55:48;;;;;;;0.20;0.20;;;7.60;62.80;;;;;;4992520;28;20105;-83
2021/03/11 04:58:13;;;;;;;;;;;7.70;1.00;;;;;;4983022;28;20029;-83
2021/03/11 05:00:45;;;;;;;0.10;0.10;;;7.70;99.90;;;;;;4999973;28;19960;-83
2021/03/11 05:03:13;;;;;;;0.10;0.10;;;7.60;98.50;;;;;;4995936;28;20882;-83
2021/03/11 05:05:42;;;;;;;0.30;0.30;;;7.70;1.00;;;;;;4992049;28;20026;-83
2021/03/11 05:08:10;;;;;;;0.15;0.15;;;7.70;99.90;;;;;;4992182;28;20375;-82
2021/03/11 05:10:37;;;;;;;1.05;1.00;;;7.70;99.90;;;;;;4988724;28;20624;-82
2021/03/11 05:13:02;;;;;;;;;;;7.70;99.90;;;;;;4990694;28;20038;-82
2021/03/11 05:15:29;;;;;;;0.30;0.30;;;7.60;99.90;;;;;;4990776;28;19928;-82
2021/03/11 05:17:55;;;;;;;0.65;0.65;;;7.60;99.90;;;;;;4990986;28;20061;-82
2021/03/11 05:20:21;;;;;;;0.77;0.65;;;7.60;99.90;;;;;;4992306;28;20054;-82
2021/03/11 05:22:49;;;;;;;0.43;0.43;;;7.70;99.90;;;;;;5003064;28;20523;-82
2021/03/11 05:25:15;;;;;;;0.73;0.73;;;7.70;1.00;;;;;;4990640;28;20038;-82
2021/03/11 05:27:41;;;;;;;0.20;0.20;;;7.70;1.00;;;;;;4997290;28;20084;-82
2021/03/11 05:30:09;;;;;;;0.15;0.15;;;7.70;99.90;;;;;;4998369;28;20439;-82
2021/03/11 05:32:35;;;;;;;0.28;0.28;;;7.80;11.40;;;;;;4994102;28;20549;-82
2021/03/11 05:35:02;;;;;;;0.45;0.40;;;7.70;1.00;;;;;;5004146;28;20061;-82
2021/03/11 05:37:28;;;;;;;;;;;7.90;46.20;;;;;;4997475;28;20057;-82
2021/03/11 05:39:54;;;;;;;0.10;0.10;;;8.20;99.90;;;;;;4992252;28;19979;-82
2021/03/11 05:42:20;;;;;;;0.28;0.28;;;8.20;5.10;;;;;;4990650;28;20037;-85
2021/03/11 05:44:47;;;;;;;0.65;0.52;;;8.40;1.00;;;;;;4983191;28;20701;-86
2021/03/11 05:47:14;;;;;;;0.10;0.10;;;8.30;1.00;;;;;;4991058;28;20537;-84
2021/03/11 05:49:41;;;;;;;0.20;0.20;;;8.40;12.70;;;;;;4983758;28;20032;-84
2021/03/11 05:52:11;;;;;;;;;;;8.40;99.90;;;;;;4989944;28;20080;-84
2021/03/11 05:54:37;;;;;;;0.63;0.63;;;8.40;99.90;;;;;;4989767;28;19910;-84
2021/03/11 05:57:05;;;;;;;0.20;0.20;;;8.40;1.00;;;;;;4990862;28;20065;-84
2021/03/11 05:59:31;;;;;;;1.05;0.77;;;8.40;1.00;;;;;;5003470;28;20494;-84
2021/03/11 06:02:03;;;;;;;0.10;0.10;;;8.50;98.20;;;;;;4988292;28;20050;-85
2021/03/11 06:04:31;;;;;;;2.10;1.88;;;8.50;1.00;;;;;;4990177;28;20092;-84
2021/03/11 06:06:57;;;;;;;0.28;0.28;;;8.50;99.90;;;;;;4988833;28;20050;-84
2021/03/11 06:09:24;;;;;;;0.27;0.20;;;8.60;1.00;;;;;;4987810;28;20049;-85
2021/03/11 06:11:50;;;;;;;0.03;0.03;;;8.50;44.60;;;;;;4994338;28;20540;-85
2021/03/11 06:14:17;;;;;;;0.57;0.57;;;8.50;99.90;;;;;;4994350;28;20034;-84
2021/03/11 06:16:57;;;;;;;0.32;0.32;;;8.50;99.90;;;;;;4996793;28;20500;-84
2021/03/11 06:19:23;;;;;;;1.00;0.25;;;8.50;99.90;;;;;;4996618;28;20041;-85
2021/03/11 06:21:52;;;;;;;0.20;0.10;;;8.50;99.90;;;;;;4991008;28;20819;-84
2021/03/11 06:24:19;;;;;;;0.10;0.10;;;8.50;99.90;;;;;;4991402;28;20673;-85
2021/03/11 06:26:45;;;;;;;0.38;0.38;;;8.60;99.90;;;;;;5000413;28;20036;-85
2021/03/11 06:29:10;;;;;;;0.08;0.08;;;8.60;23.10;;;;;;4996481;28;20045;-85
2021/03/11 06:31:39;;;;;;;0.22;0.22;;;8.50;1.00;;;;;;4998599;28;20034;-84
2021/03/11 06:34:21;;;;;;;0.10;0.10;;;8.50;1.00;;;;;;4989322;28;20424;-84
2021/03/11 06:36:47;;;;;;;0.25;0.25;;;8.60;99.90;;;;;;4985846;28;20038;-84
2021/03/11 06:39:33;;;;;;;0.13;0.13;;;8.60;99.90;;;;;;4993539;28;20026;-86
2021/03/11 06:41:59;;;;;;;0.25;0.25;;;8.60;99.90;;;;;;4996601;28;20022;-85
2021/03/11 06:44:43;;;;;;;0.13;0.13;;;8.60;99.90;;;;;;4988097;28;20117;-85
2021/03/11 06:47:13;;;;;;;1.35;1.00;;;8.60;99.90;;;;;;4988736;28;20018;-85
2021/03/11 06:49:59;;;;;;;0.28;0.28;;;8.50;88.50;;;;;;5004575;28;20786;-85
2021/03/11 06:52:26;;;;;;;0.10;0.10;;;8.50;99.90;;;;;;4981106;28;20035;-84
2021/03/11 06:55:13;;;;;;;0.30;0.30;;;8.50;1.00;;;;;;4996207;28;20310;-85
2021/03/11 06:57:40;;;;;;;0.40;0.40;;;8.50;17.60;;;;;;4992678;28;20034;-87
2021/03/11 07:00:21;;;;;;;0.50;0.45;;;8.60;99.90;;;;;;4989938;28;20832;-88
2021/03/11 07:02:55;;;;;;;0.00;0.00;;;8.60;1.00;;;;;;4989782;28;20037;-87
2021/03/11 07:05:23;;;;;;;0.03;0.03;;;8.60;99.90;;;;;;4993371;28;20024;-86
2021/03/11 07:07:49;;;;;;;0.10;0.10;;;8.60;1.00;;;;;;4998356;28;20483;-85
2021/03/11 07:10:26;;;;;;;0.20;0.20;;;8.60;1.00;;;;;;4988863;28;20026;-85
2021/03/11 07:12:58;;;;;;;0.93;0.93;;;8.60;99.90;;;;;;4984992;28;20046;-86
2021/03/11 07:15:26;;;;;;;0.22;0.22;;;8.60;19.00;;;;;;4988522;28;20065;-86
2021/03/11 07:17:53;;;;;;;0.25;0.25;;;8.50;1.00;;;;;;4993965;28;20165;-86
2021/03/11 07:20:23;;;;;;;0.20;0.20;;;8.50;99.90;;;;;;4995901;28;20671;-86
2021/03/11 07:23:09;;;;;;;0.57;0.50;;;8.60;51.90;;;;;;4988358;28;20043;-87
2021/03/11 07:25:37;;;;;;;0.55;0.55;;;8.70;1.00;;;;;;4986415;28;20037;-87
2021/03/11 07:28:05;;;;;;;0.00;0.00;;;8.70;99.90;;;;;;4993148;28;20042;-86
2021/03/11 07:30:32;;;;;;;1.98;0.63;;;8.70;99.90;;;;;;4991198;28;20026;-86
2021/03/11 07:33:00;;;;;;;1.33;1.23;;;8.60;99.90;;;;;;4999487;28;20629;-87
2021/03/11 07:35:29;;;;;;;10.77;7.03;;;8.70;99.90;;;;;;5002910;28;20035;-86
2021/03/11 07:37:57;;;;;;;1.42;1.35;;;8.70;1.00;;;;;;4988725;28;20041;-86
2021/03/11 07:40:24;;;;;;;0.22;0.22;;;8.80;1.00;;;;;;5002130;28;20041;-86
2021/03/11 07:42:51;;;;;;;0.10;0.10;;;8.90;99.90;;;;;;5002845;28;20026;-85
2021/03/11 07:45:17;;;;;;;0.87;0.87;;;8.90;99.90;;;;;;4988029;28;20030;-85
2021/03/11 07:47:43;;;;;;;1.65;0.95;;;8.90;99.90;;;;;;4988804;28;20046;-85
2021/03/11 07:50:14;;;;;;;3.22;3.00;;;8.90;99.90;;;;;;4988642;28;20035;-86
2021/03/11 07:52:41;;;;;;;1.98;1.88;;;9.00;99.90;;;;;;4990662;28;20033;-86
2021/03/11 07:55:09;;;;;;;0.55;0.55;;;9.10;99.90;;;;;;5008697;28;20153;-86
2021/03/11 07:57:56;;;;;;;0.85;0.68;;;9.10;99.90;;;;;;4993889;28;20083;-86
2021/03/11 08:00:26;;;;;;;;;;;9.10;99.90;;;;;;4989394;28;20027;-85
2021/03/11 08:03:04;;;;;;;0.68;0.68;;;9.10;97.50;;;;;;4989196;28;19932;-85
2021/03/11 08:05:31;;;;;;;0.47;0.45;;;9.10;92.60;;;;;;4995140;28;20108;-86
2021/03/11 08:08:14;;;;;;;2.45;1.65;;;9.30;52.70;;;;;;4990469;28;20461;-86
2021/03/11 08:10:44;;;;;;;0.28;0.28;;;9.40;1.00;;;;;;4980908;28;20640;-86
2021/03/11 08:13:31;;;;;;;0.20;0.20;;;9.40;1.00;;;;;;4997072;28;20117;-85
2021/03/11 08:15:59;;;;;;;0.80;0.47;;;9.30;1.00;;;;;;4977220;28;20535;-85
2021/03/11 08:18:34;;;;;;;0.40;0.40;;;9.40;1.00;;;;;;4988532;28;20773;-85
2021/03/11 08:21:01;;;;;;;0.50;0.50;;;9.40;1.00;;;;;;4988115;28;20030;-85
2021/03/11 08:23:30;;;;;;;;;;;9.40;1.00;;;;;;4995703;28;20026;-86
2021/03/11 08:25:58;;;;;;;0.35;0.35;;;9.50;1.00;;;;;;4969714;28;19996;-86
2021/03/11 08:28:30;;;;;;;0.63;0.60;;;9.60;1.00;;;;;;4995091;28;20041;-85
2021/03/11 08:31:01;;;;;;;0.70;0.70;;;9.60;1.00;;;;;;4988268;28;20494;-86
2021/03/11 08:33:27;;;;;;;0.43;0.40;;;9.60;1.00;;;;;;4990143;28;20491;-85
2021/03/11 08:35:55;;;;;;;0.20;0.20;;;9.60;1.00;;;;;;5009759;28;20026;-86
2021/03/11 08:38:21;;;;;;;1.30;0.38;;;9.60;1.00;;;;;;4999821;28;20022;-85
2021/03/11 08:40:56;;;;;;;0.10;0.10;;;9.70;1.00;;;;;;4991675;28;20117;-86
2021/03/11 08:43:37;;;;;;;1.25;0.88;;;9.60;1.00;;;;;;4991860;28;20038;-86
2021/03/11 08:46:22;;;;;;;0.20;0.20;;;9.70;1.00;;;;;;5005722;28;20031;-87
2021/03/11 08:49:00;;;;;;;0.50;0.50;;;9.80;1.00;;;;;;4991885;28;20026;-86
2021/03/11 08:51:25;;;;;;;1.10;1.10;;;9.90;1.00;;;;;;4995896;28;20034;-86
2021/03/11 08:54:03;;;;;;;1.95;1.85;;;9.90;1.00;;;;;;4999416;28;20076;-87
2021/03/11 08:56:29;;;;;;;0.32;0.32;;;10.00;1.00;;;;;;4997597;28;20018;-87
2021/03/11 08:59:08;;;;;;;4.95;3.13;;;10.00;1.00;;;;;;4993121;28;20037;-86
2021/03/11 09:01:47;;;;;;;2.58;2.08;;;10.00;1.00;;;;;;4991693;28;20490;-86
2021/03/11 09:04:22;;;;;;;0.28;0.28;;;9.80;1.00;;;;;;4990231;28;20030;-86
2021/03/11 09:06:59;;;;;;;0.22;0.20;;;9.80;1.00;;;;;;4991776;28;20027;-86
2021/03/11 09:09:45;;;;;;;0.47;0.47;;;9.90;1.00;;;;;;4987524;28;20034;-86
2021/03/11 09:12:25;;;;;;;0.63;0.60;;;10.10;1.00;;;;;;4998727;28;20042;-86
2021/03/11 09:14:52;;;;;;;0.15;0.15;;;10.10;1.00;;;;;;4987416;28;20487;-86
2021/03/11 09:17:23;;;;;;;0.75;0.75;;;10.10;1.00;;;;;;4990059;28;20026;-85
2021/03/11 09:20:00;;;;;;;0.00;0.00;;;10.20;1.00;;;;;;4979056;28;20114;-85
2021/03/11 09:22:32;;;;;;;0.30;0.30;;;10.30;1.00;;;;;;4989540;28;20022;-85
2021/03/11 09:25:03;;;;;;;0.00;0.00;;;10.30;1.00;;;;;;4988461;28;20030;-86
2021/03/11 09:27:30;;;;;;;1.05;0.40;;;10.30;1.00;;;;;;4991272;28;20081;-86
2021/03/11 09:29:57;;;;;;;5.72;0.60;;;10.40;99.90;;;;;;4991154;28;20113;-86
2021/03/11 09:32:34;;;;;;;0.05;0.05;;;10.50;99.90;;;;;;4980888;28;20844;-85
2021/03/11 09:35:02;;;;;;;0.52;0.47;;;10.60;99.90;;;;;;4990033;28;20034;-86
2021/03/11 09:37:54;;;;;;;6.07;0.70;;;10.60;99.90;;;;;;4990352;28;20030;-86
2021/03/11 09:40:23;;;;;;;0.32;0.32;;;10.70;99.90;;;;;;4989938;28;20030;-86
2021/03/11 09:43:11;;;;;;;0.38;0.38;;;10.70;99.90;;;;;;4992077;28;20037;-88
2021/03/11 09:45:41;;;;;;;0.13;0.13;;;10.80;99.90;;;;;;4981180;28;20042;-87
2021/03/11 09:48:08;;;;;;;1.17;1.10;;;10.90;99.90;;;;;;4989379;28;20054;-87
2021/03/11 09:50:35;;;;;;;0.30;0.30;;;11.00;99.90;;;;;;4991052;28;20014;-87
2021/03/11 09:53:01;;;;;;;;;;;11.00;99.90;;;;;;5003842;28;20029;-87
2021/03/11 09:55:29;;;;;;;0.00;0.00;;;11.00;99.90;;;;;;4998540;28;19909;-87
2021/03/11 09:57:55;;;;;;;0.20;0.20;;;11.20;99.90;;;;;;4996287;28;20034;-87
2021/03/11 10:00:21;;;;;;;0.20;0.20;;;11.40;99.90;;;;;;5004057;28;20108;-87
2021/03/11 10:02:52;;;;;;;1.40;0.77;;;11.40;99.90;;;;;;4989427;28;20491;-87
2021/03/11 10:05:19;;;;;;;3.30;3.00;;;11.50;99.90;;;;;;5007306;28;20034;-87
2021/03/11 10:07:56;;;;;;;0.10;0.10;;;11.70;99.90;;;;;;4999759;28;20041;-87
2021/03/11 10:10:23;;;;;;;0.90;0.90;;;12.10;99.90;;;;;;5002533;28;20253;-87
2021/03/11 10:12:49;;;;;;;0.43;0.40;;;12.40;99.90;;;;;;4989369;28;20073;-87
2021/03/11 10:15:16;;;;;;;0.40;0.40;;;12.60;99.90;;;;;;4990414;28;20096;-87
2021/03/11 10:17:43;;;;;;;0.20;0.20;;;12.80;99.90;;;;;;4998950;28;20456;-86
2021/03/11 10:20:28;;;;;;;0.10;0.10;;;12.90;99.90;;;;;;5008255;28;20030;-87
2021/03/11 10:23:17;;;;;;;0.10;0.10;;;13.00;99.90;;;;;;4998680;28;20116;-86
2021/03/11 10:25:43;;;;;;;0.35;0.35;;;12.90;99.90;;;;;;4991449;28;20058;-87
2021/03/11 10:28:11;;;;;;;1.58;0.57;;;12.90;99.90;;;;;;5000831;28;20033;-87
2021/03/11 10:30:40;;;;;;;0.40;0.40;;;13.10;99.90;;;;;;4992832;28;20088;-87
2021/03/11 10:33:06;;;;;;;0.40;0.40;;;13.60;99.90;;;;;;4988997;28;20510;-87
2021/03/11 10:35:36;;;;;;;1.67;1.10;;;13.90;99.90;;;;;;4988451;28;20037;-87
2021/03/11 10:38:22;;;;;;;0.98;0.98;;;13.40;99.90;;;;;;4988988;28;20125;-86
2021/03/11 10:40:48;;;;;;;0.20;0.20;;;13.80;99.90;;;;;;4989953;28;20038;-87
2021/03/11 10:43:25;;;;;;;0.20;0.20;;;14.00;99.90;;;;;;4989985;28;20066;-87
2021/03/11 10:45:51;;;;;;;0.70;0.70;;;14.80;99.90;;;;;;5003244;28;20040;-87
2021/03/11 10:48:17;;;;;;;0.15;0.15;;;15.30;99.90;;;;;;4989753;28;20026;-87
2021/03/11 10:50:45;;;;;;;0.10;0.10;;;14.60;99.90;;;;;;5001888;28;20029;-87
2021/03/11 10:53:15;;;;;;;0.30;0.30;;;14.50;99.90;;;;;;4989729;28;20041;-87
2021/03/11 10:55:43;;;;;;;0.10;0.10;;;14.30;99.90;;;;;;5002393;28;20121;-87
2021/03/11 10:58:26;;;;;;;0.15;0.15;;;13.90;99.90;;;;;;4991138;28;20038;-87
2021/03/11 11:01:20;;;;;;;0.30;0.30;;;14.00;99.90;;;;;;4999176;28;20630;-87
2021/03/11 11:03:46;;;;;;;0.10;0.10;;;14.60;99.90;;;;;;5003267;28;20049;-87
2021/03/11 11:06:12;;;;;;;0.20;0.20;;;14.60;99.90;;;;;;5001384;28;20453;-87
2021/03/11 11:08:43;;;;;;;0.73;0.73;;;14.50;99.90;;;;;;4989933;28;20042;-87
2021/03/11 11:11:11;;;;;;;0.20;0.20;;;14.60;99.90;;;;;;5000003;28;20269;-87
2021/03/11 11:13:37;;;;;;;0.15;0.15;;;14.70;99.90;;;;;;4993761;28;20518;-87
2021/03/11 11:16:03;;;;;;;0.20;0.20;;;14.70;99.90;;;;;;4987887;28;20030;-87
2021/03/11 11:18:29;;;;;;;0.13;0.13;;;15.20;99.90;;;;;;4988242;28;20030;-87
2021/03/11 11:20:55;;;;;;;1.30;0.80;;;14.80;99.90;;;;;;4996210;28;20280;-87
2021/03/11 11:23:21;;;;;;;0.10;0.10;;;14.70;99.90;;;;;;4996636;28;20701;-87
2021/03/11 11:25:46;;;;;;;0.10;0.10;;;14.90;99.90;;;;;;4988898;28;20035;-87
2021/03/11 11:28:12;;;;;;;0.20;0.20;;;14.60;99.90;;;;;;4998902;28;20030;-87
2021/03/11 11:30:38;;;;;;;0.20;0.20;;;14.80;99.90;;;;;;4994943;28;20021;-87
2021/03/11 11:33:04;;;;;;;0.38;0.38;;;14.50;99.90;;;;;;4991351;28;20043;-87
2021/03/11 11:35:30;;;;;;;0.15;0.13;;;14.10;99.90;;;;;;4985553;28;20068;-88
2021/03/11 11:37:56;;;;;;;1.00;0.53;;;14.50;99.90;;;;;;5001809;28;20026;-88
2021/03/11 11:40:22;;;;;;;0.10;0.10;;;14.60;99.90;;;;;;5002153;28;20073;-87
2021/03/11 11:42:48;;;;;;;0.10;0.10;;;14.00;99.90;;;;;;4989568;28;20034;-87
2021/03/11 11:45:16;;;;;;;0.20;0.20;;;13.90;99.90;;;;;;4987712;28;20040;-88
2021/03/11 11:47:42;;;;;;;0.10;0.10;;;14.00;99.90;;;;;;4985963;28;20562;-88
2021/03/11 11:50:10;;;;;;;0.10;0.10;;;14.10;99.90;;;;;;4981881;28;20267;-88
2021/03/11 11:52:37;;;;;;;0.00;0.00;;;13.60;99.90;;;;;;5004262;28;20033;-87
2021/03/11 11:55:05;;;;;;;0.47;0.47;;;13.50;99.90;;;;;;4998444;28;20034;-86
2021/03/11 11:57:31;;;;;;;4.28;0.30;;;13.50;99.90;;;;;;4989075;28;20027;-86
2021/03/11 11:59:57;;;;;;;0.40;0.40;;;13.70;99.90;;;;;;5002868;28;20048;-86
2021/03/11 12:02:23;;;;;;;0.10;0.10;;;14.00;99.90;;;;;;4989207;28;20037;-86
2021/03/11 12:04:49;;;;;;;0.00;0.00;;;14.10;99.90;;;;;;4989318;28;20474;-85
2021/03/11 12:07:15;;;;;;;0.32;0.32;;;14.20;99.90;;;;;;4988566;28;20058;-85
2021/03/11 12:09:40;;;;;;;0.52;0.50;;;14.20;99.90;;;;;;4997274;28;20015;-85
2021/03/11 12:12:07;;;;;;;0.10;0.10;;;14.60;99.90;;;;;;5004232;28;20470;-87
2021/03/11 12:14:33;;;;;;;0.17;0.15;;;15.10;99.90;;;;;;4992911;28;20022;-88
2021/03/11 12:16:59;;;;;;;1.02;0.52;;;14.70;99.90;;;;;;4991904;28;20487;-89
2021/03/11 12:19:25;;;;;;;0.20;0.20;;;14.60;99.90;;;;;;4992349;28;20045;-89
2021/03/11 12:21:51;;;;;;;0.00;0.00;;;14.20;99.90;;;;;;5003040;28;20018;-89
2021/03/11 12:24:17;;;;;;;0.20;0.20;;;14.10;99.90;;;;;;4979499;28;20038;-88
2021/03/11 12:26:43;;;;;;;0.00;0.00;;;13.90;99.90;;;;;;4991307;28;20125;-90
2021/03/11 12:29:09;;;;;;;0.00;0.00;;;13.90;99.90;;;;;;4995572;28;20038;-89
2021/03/11 12:31:35;;;;;;;0.50;0.50;;;13.80;99.90;;;;;;5001760;28;20037;-88
2021/03/11 12:34:00;;;;;;;0.10;0.10;;;13.70;99.90;;;;;;4994865;28;20026;-89
2021/03/11 12:36:26;;;;;;;0.20;0.17;;;13.80;99.90;;;;;;4993398;28;20036;-88
2021/03/11 12:38:53;;;;;;;0.13;0.13;;;13.90;99.90;;;;;;4992950;28;20255;-89
2021/03/11 12:41:22;;;;;;;;;;;13.90;99.90;;;;;;5012050;28;20103;-89
2021/03/11 12:43:48;;;;;;;0.10;0.10;;;14.00;99.90;;;;;;4992043;28;19928;-89
2021/03/11 12:46:14;;;;;;;0.00;0.00;;;14.50;99.90;;;;;;4988771;28;20027;-89
2021/03/11 12:48:40;;;;;;;0.10;0.10;;;15.00;99.90;;;;;;4984045;28;20042;-89
2021/03/11 12:51:06;;;;;;;0.27;0.27;;;15.40;99.90;;;;;;4995830;28;20022;-89
2021/03/11 12:53:32;;;;;;;0.10;0.10;;;15.20;99.90;;;;;;5010482;28;20482;-89
2021/03/11 12:55:58;;;;;;;0.10;0.10;;;15.50;99.90;;;;;;4995722;28;20029;-89
2021/03/11 12:58:23;;;;;;;1.83;0.77;;;15.30;99.90;;;;;;4985835;28;20049;-89
2021/03/11 13:00:51;;;;;;;0.00;0.00;;;15.20;99.90;;;;;;4983525;28;20037;-89
2021/03/11 13:03:16;;;;;;;0.55;0.55;;;14.80;99.90;;;;;;5007478;28;20025;-89
2021/03/11 13:05:43;;;;;;;0.10;0.10;;;14.70;99.90;;;;;;4994489;28;20098;-89
2021/03/11 13:08:09;;;;;;;1.08;0.40;;;14.30;99.90;;;;;;4993796;28;20564;-88
2021/03/11 13:10:36;;;;;;;0.10;0.10;;;14.10;99.90;;;;;;5010798;28;20030;-88